Time;durP1;ratioP1;P1;durP2;ratioP2;P2;SDS_P1;SDS_P2;PMS_P1;PMS_P2;Temp;Humidity;BMP_temperature;BMP_pressure;BME280_temperature;BME280_humidity;BME280_pressure;Samples;Min_cycle;Max_cycle;Signal;HPM_P1;HPM_P2
2022/05/28 00:00:59;;;;;;;8.75;1.20;;;;;;;;;;5002890;28;20043;-75
2022/05/28 00:03:27;;;;;;;7.60;1.45;;;;;;;;;;4986374;28;20046;-78
2022/05/28 00:05:53;;;;;;;7.63;1.23;;;;;;;;;;4987212;28;20391;-78
2022/05/28 00:08:19;;;;;;;9.63;1.17;;;;;;;;;;5003031;28;20043;-78
2022/05/28 00:10:47;;;;;;;9.27;1.50;;;;;;;;;;4986245;28;20081;-76
2022/05/28 00:13:14;;;;;;;7.88;1.42;;;;;;;;;;4986474;28;20085;-78
2022/05/28 00:15:43;;;;;;;8.52;1.45;;;;;;;;;;4986120;28;20102;-77
2022/05/28 00:18:09;;;;;;;8.38;1.70;;;;;;;;;;4969796;28;20043;-77
2022/05/28 00:20:36;;;;;;;3.67;0.70;;;;;;;;;;4986106;28;20038;-79
2022/05/28 00:23:02;;;;;;;8.55;1.20;;;;;;;;;;4986512;28;20538;-78
2022/05/28 00:25:29;;;;;;;3.28;0.60;;;;;;;;;;4986037;28;20031;-77
2022/05/28 00:27:55;;;;;;;5.28;0.80;;;;;;;;;;4970530;28;20039;-78
2022/05/28 00:30:22;;;;;;;4.07;0.63;;;;;;;;;;4985824;28;20035;-78
2022/05/28 00:32:48;;;;;;;3.47;0.88;;;;;;;;;;5002093;28;20039;-78
2022/05/28 00:35:16;;;;;;;4.50;1.00;;;;;;;;;;4986069;28;20038;-77
2022/05/28 00:37:46;;;;;;;8.73;1.27;;;;;;;;;;4986082;28;20096;-77
2022/05/28 00:40:23;;;;;;;6.78;1.42;;;;;;;;;;4986255;28;20410;-79
2022/05/28 00:42:49;;;;;;;7.68;0.90;;;;;;;;;;4985493;28;20049;-78
2022/05/28 00:45:16;;;;;;;5.43;0.88;;;;;;;;;;4985649;28;20169;-77
2022/05/28 00:47:46;;;;;;;6.63;1.00;;;;;;;;;;4985574;28;20038;-77
2022/05/28 00:50:13;;;;;;;6.25;1.15;;;;;;;;;;5002462;28;20518;-78
2022/05/28 00:52:40;;;;;;;9.15;1.50;;;;;;;;;;4985563;28;20496;-78
2022/05/28 00:55:07;;;;;;;7.40;1.30;;;;;;;;;;4985855;28;20142;-78
2022/05/28 00:57:33;;;;;;;6.72;1.20;;;;;;;;;;4985242;28;20109;-77
2022/05/28 00:59:59;;;;;;;6.03;1.15;;;;;;;;;;4985549;28;20043;-79
2022/05/28 01:02:38;;;;;;;9.23;1.40;;;;;;;;;;4969001;28;20051;-76
2022/05/28 01:05:28;;;;;;;9.63;1.20;;;;;;;;;;5002244;28;20042;-76
2022/05/28 01:08:13;;;;;;;9.77;1.17;;;;;;;;;;4953160;28;20059;-75
2022/05/28 01:10:44;;;;;;;7.50;1.00;;;;;;;;;;4985594;28;20502;-77
2022/05/28 01:13:17;;;;;;;8.60;1.20;;;;;;;;;;4985591;28;20038;-77
2022/05/28 01:15:54;;;;;;;8.27;1.23;;;;;;;;;;4984974;28;20066;-76
2022/05/28 01:18:26;;;;;;;7.07;0.90;;;;;;;;;;4985287;28;20398;-77
2022/05/28 01:20:54;;;;;;;8.98;0.90;;;;;;;;;;4985362;28;20544;-77
2022/05/28 01:23:47;;;;;;;9.88;1.20;;;;;;;;;;4985166;28;20488;-75
2022/05/28 01:26:21;;;;;;;7.38;1.60;;;;;;;;;;4968491;28;20085;-77
2022/05/28 01:28:52;;;;;;;7.38;1.15;;;;;;;;;;4984953;28;20042;-76
2022/05/28 01:31:20;;;;;;;4.70;0.90;;;;;;;;;;5001644;28;20169;-77
2022/05/28 01:33:46;;;;;;;8.10;1.10;;;;;;;;;;4985263;28;20039;-77
2022/05/28 01:36:14;;;;;;;7.45;1.40;;;;;;;;;;4983850;28;20054;-75
2022/05/28 01:38:41;;;;;;;7.97;1.33;;;;;;;;;;4988392;28;20375;-82
2022/05/28 01:41:07;;;;;;;9.07;1.13;;;;;;;;;;5005508;28;20189;-85
2022/05/28 01:43:37;;;;;;;7.78;1.33;;;;;;;;;;4990129;28;20506;-89
2022/05/28 01:46:05;;;;;;;13.13;1.52;;;;;;;;;;5004511;28;20113;-90
2022/05/28 01:48:31;;;;;;;12.00;1.38;;;;;;;;;;4986871;28;20050;-90
2022/05/28 01:50:58;;;;;;;7.32;1.30;;;;;;;;;;4987688;28;20122;-83
2022/05/28 01:56:09;;;;;;;7.40;1.30;;;;;;;;;;5003690;28;20046;-83
2022/05/28 01:58:35;;;;;;;6.03;1.25;;;;;;;;;;4987238;28;20043;-89
2022/05/28 02:01:03;;;;;;;6.22;1.13;;;;;;;;;;4971478;28;20077;-84
2022/05/28 02:03:32;;;;;;;6.88;1.10;;;;;;;;;;4968790;28;20137;-84
2022/05/28 02:05:58;;;;;;;11.18;1.67;;;;;;;;;;4978914;28;20042;-82
2022/05/28 02:08:24;;;;;;;13.13;1.60;;;;;;;;;;4981877;28;20130;-89
2022/05/28 02:10:57;;;;;;;8.18;1.13;;;;;;;;;;5017028;28;20042;-88
2022/05/28 02:13:30;;;;;;;6.38;1.67;;;;;;;;;;4989719;28;20043;-90
2022/05/28 02:16:11;;;;;;;9.48;1.20;;;;;;;;;;4994174;28;20054;-90
2022/05/28 02:18:42;;;;;;;6.97;1.33;;;;;;;;;;4985037;28;20118;-87
2022/05/28 02:21:11;;;;;;;8.85;1.98;;;;;;;;;;5005750;28;20057;-90
2022/05/28 02:23:46;;;;;;;9.07;1.20;;;;;;;;;;4993193;28;20072;-87
2022/05/28 02:26:18;;;;;;;13.52;1.73;;;;;;;;;;4994534;28;20057;-90
2022/05/28 02:28:45;;;;;;;8.13;1.33;;;;;;;;;;4986510;28;20054;-91
2022/05/28 02:31:15;;;;;;;6.63;1.23;;;;;;;;;;4987662;28;20050;-76
2022/05/28 02:33:43;;;;;;;7.93;1.30;;;;;;;;;;4974546;28;20429;-77
2022/05/28 02:36:09;;;;;;;10.30;1.40;;;;;;;;;;5004982;28;20502;-77
2022/05/28 02:38:35;;;;;;;10.18;1.45;;;;;;;;;;4987850;28;20043;-76
2022/05/28 02:41:02;;;;;;;6.78;1.30;;;;;;;;;;4956526;28;20502;-77
2022/05/28 02:43:31;;;;;;;9.38;1.58;;;;;;;;;;4972155;28;20081;-76
2022/05/28 02:45:57;;;;;;;10.63;1.83;;;;;;;;;;4988681;28;20052;-77
2022/05/28 02:48:23;;;;;;;11.20;1.63;;;;;;;;;;4972335;28;20602;-77
2022/05/28 02:50:49;;;;;;;9.30;1.13;;;;;;;;;;5003923;28;20050;-76
2022/05/28 02:53:16;;;;;;;6.97;1.52;;;;;;;;;;5004344;28;20094;-77
2022/05/28 02:55:42;;;;;;;5.53;1.15;;;;;;;;;;5004095;28;20050;-76
2022/05/28 02:58:08;;;;;;;8.45;1.40;;;;;;;;;;4971549;28;20043;-77
2022/05/28 03:00:34;;;;;;;6.95;1.45;;;;;;;;;;5003601;28;20038;-76
2022/05/28 03:03:00;;;;;;;7.95;1.35;;;;;;;;;;5004293;28;20042;-76
2022/05/28 03:05:27;;;;;;;14.25;2.08;;;;;;;;;;5004064;28;20458;-76
2022/05/28 03:07:53;;;;;;;7.90;1.50;;;;;;;;;;4987557;28;20043;-76
2022/05/28 03:10:20;;;;;;;8.00;1.60;;;;;;;;;;4971320;28;20043;-78
2022/05/28 03:12:46;;;;;;;12.20;1.67;;;;;;;;;;5003686;28;20039;-76
2022/05/28 03:15:12;;;;;;;10.00;1.80;;;;;;;;;;5002868;28;20047;-75
2022/05/28 03:17:38;;;;;;;9.32;1.70;;;;;;;;;;5002576;28;20485;-76
2022/05/28 03:20:05;;;;;;;11.48;1.80;;;;;;;;;;5015629;28;20046;-76
2022/05/28 03:22:31;;;;;;;13.35;1.52;;;;;;;;;;4970693;28;20116;-76
2022/05/28 03:24:57;;;;;;;9.27;1.40;;;;;;;;;;5002207;28;20054;-76
2022/05/28 03:27:24;;;;;;;11.45;1.60;;;;;;;;;;5002211;28;20498;-76
2022/05/28 03:29:50;;;;;;;10.88;1.58;;;;;;;;;;5002239;28;20097;-76
2022/05/28 03:32:16;;;;;;;10.90;1.42;;;;;;;;;;4985974;28;20390;-77
2022/05/28 03:34:42;;;;;;;6.80;1.25;;;;;;;;;;4969150;28;20039;-76
2022/05/28 03:37:08;;;;;;;11.45;1.30;;;;;;;;;;5002843;28;20143;-77
2022/05/28 03:39:35;;;;;;;9.65;1.40;;;;;;;;;;5001800;28;20042;-77
2022/05/28 03:42:01;;;;;;;7.32;1.33;;;;;;;;;;4986208;28;20046;-76
2022/05/28 03:44:27;;;;;;;8.07;1.55;;;;;;;;;;5002106;28;20046;-76
2022/05/28 03:46:53;;;;;;;9.65;1.60;;;;;;;;;;4985746;28;20097;-76
2022/05/28 03:49:27;;;;;;;8.15;1.45;;;;;;;;;;4985828;28;20050;-76
2022/05/28 03:51:54;;;;;;;11.60;1.95;;;;;;;;;;4969177;28;20129;-76
2022/05/28 03:54:20;;;;;;;6.78;2.10;;;;;;;;;;4985833;28;20039;-76
2022/05/28 03:56:47;;;;;;;11.38;1.77;;;;;;;;;;4975341;28;20155;-76
2022/05/28 03:59:13;;;;;;;9.15;1.50;;;;;;;;;;5001476;28;20093;-77
2022/05/28 04:01:39;;;;;;;8.63;1.20;;;;;;;;;;4983705;28;20065;-77
2022/05/28 04:04:06;;;;;;;7.78;1.83;;;;;;;;;;4968020;28;20260;-77
2022/05/28 04:06:33;;;;;;;10.07;1.60;;;;;;;;;;4982325;28;20043;-76
2022/05/28 04:09:00;;;;;;;8.85;1.42;;;;;;;;;;4983966;28;20035;-77
2022/05/28 04:11:26;;;;;;;8.68;1.58;;;;;;;;;;4968844;28;20047;-87
2022/05/28 04:13:52;;;;;;;10.73;1.40;;;;;;;;;;4944274;28;1127866;-86
2022/05/28 04:16:18;;;;;;;8.35;1.25;;;;;;;;;;4973357;28;20101;-89
2022/05/28 04:18:44;;;;;;;7.80;1.50;;;;;;;;;;4976880;28;20487;-87
2022/05/28 04:21:10;;;;;;;8.48;1.35;;;;;;;;;;5000007;28;20043;-86
2022/05/28 04:23:36;;;;;;;10.93;1.60;;;;;;;;;;4996633;28;20082;-86
2022/05/28 04:26:03;;;;;;;8.20;1.70;;;;;;;;;;4973359;28;20042;-87
2022/05/28 04:28:29;;;;;;;10.80;1.40;;;;;;;;;;4957500;28;20413;-92
2022/05/28 04:30:55;;;;;;;8.75;1.90;;;;;;;;;;4956628;28;20487;-87
2022/05/28 04:33:21;;;;;;;11.70;1.52;;;;;;;;;;4990388;28;20046;-87
2022/05/28 04:35:47;;;;;;;9.80;1.50;;;;;;;;;;4977728;28;20043;-89
2022/05/28 04:38:13;;;;;;;10.60;1.88;;;;;;;;;;4990742;28;20043;-89
2022/05/28 04:40:39;;;;;;;8.65;1.50;;;;;;;;;;5005276;28;20041;-88
2022/05/28 04:43:05;;;;;;;9.45;1.52;;;;;;;;;;4972904;28;20074;-88
2022/05/28 04:45:31;;;;;;;11.18;1.60;;;;;;;;;;5018956;28;20470;-88
2022/05/28 04:47:57;;;;;;;13.18;1.50;;;;;;;;;;4973554;28;20130;-87
2022/05/28 04:50:24;;;;;;;8.52;1.50;;;;;;;;;;5007399;28;20053;-88
2022/05/28 04:52:50;;;;;;;10.98;2.95;;;;;;;;;;4993426;28;20482;-88
2022/05/28 04:55:16;;;;;;;9.70;2.00;;;;;;;;;;4990999;28;20041;-89
2022/05/28 04:57:42;;;;;;;12.00;1.88;;;;;;;;;;5011333;28;20100;-86
2022/05/28 05:00:10;;;;;;;10.48;1.90;;;;;;;;;;4978970;28;20109;-86
2022/05/28 05:02:36;;;;;;;7.97;1.83;;;;;;;;;;4988387;28;20054;-87
2022/05/28 05:05:03;;;;;;;8.68;1.45;;;;;;;;;;5004423;28;20054;-85
2022/05/28 05:07:29;;;;;;;11.32;1.52;;;;;;;;;;4988598;28;20046;-81
2022/05/28 05:09:55;;;;;;;8.68;1.50;;;;;;;;;;4988398;28;20057;-82
2022/05/28 05:12:21;;;;;;;9.70;1.85;;;;;;;;;;4972503;28;20043;-86
2022/05/28 05:14:47;;;;;;;9.05;1.70;;;;;;;;;;4971623;28;20109;-88
2022/05/28 05:17:13;;;;;;;10.45;1.48;;;;;;;;;;4972036;28;20081;-81
2022/05/28 05:19:39;;;;;;;11.68;2.45;;;;;;;;;;5004902;28;20049;-84
2022/05/28 05:22:05;;;;;;;8.57;1.33;;;;;;;;;;4988162;28;20043;-82
2022/05/28 05:24:33;;;;;;;9.73;1.40;;;;;;;;;;4972367;28;20047;-80
2022/05/28 05:27:03;;;;;;;8.68;1.50;;;;;;;;;;5004033;28;20173;-83
2022/05/28 05:29:29;;;;;;;10.38;1.67;;;;;;;;;;4999760;28;20077;-82
2022/05/28 05:31:59;;;;;;;10.48;1.80;;;;;;;;;;5003646;28;20047;-84
2022/05/28 05:34:28;;;;;;;5.65;1.42;;;;;;;;;;4972635;28;20101;-85
2022/05/28 05:36:59;;;;;;;10.60;1.63;;;;;;;;;;5003079;28;20125;-81
2022/05/28 05:39:28;;;;;;;9.35;1.58;;;;;;;;;;4981446;28;20502;-82
2022/05/28 05:41:55;;;;;;;10.43;1.73;;;;;;;;;;4988275;28;20046;-84
2022/05/28 05:44:22;;;;;;;13.27;2.42;;;;;;;;;;4987059;28;20061;-81
2022/05/28 05:46:48;;;;;;;9.35;1.60;;;;;;;;;;5004377;28;20042;-83
2022/05/28 05:49:14;;;;;;;8.18;1.42;;;;;;;;;;5004858;28;20101;-86
2022/05/28 05:51:45;;;;;;;8.35;1.65;;;;;;;;;;5008117;28;20093;-80
2022/05/28 05:54:12;;;;;;;6.78;1.60;;;;;;;;;;4974431;28;20117;-79
2022/05/28 05:56:38;;;;;;;7.10;1.55;;;;;;;;;;5005188;28;20038;-75
2022/05/28 05:59:04;;;;;;;9.00;1.70;;;;;;;;;;5004974;28;20102;-75
2022/05/28 06:01:30;;;;;;;8.52;1.52;;;;;;;;;;5005204;28;20483;-81
2022/05/28 06:03:56;;;;;;;10.27;2.05;;;;;;;;;;5004989;28;20047;-79
2022/05/28 06:06:23;;;;;;;8.93;1.70;;;;;;;;;;5004929;28;20126;-76
2022/05/28 06:08:49;;;;;;;10.45;1.70;;;;;;;;;;4972207;28;20042;-75
2022/05/28 06:11:15;;;;;;;9.88;1.60;;;;;;;;;;5004914;28;20043;-78
2022/05/28 06:13:42;;;;;;;6.05;1.50;;;;;;;;;;5005018;28;20090;-78
2022/05/28 06:16:08;;;;;;;6.90;1.50;;;;;;;;;;5004682;28;20054;-75
2022/05/28 06:18:34;;;;;;;6.85;1.85;;;;;;;;;;5006140;28;20034;-84
2022/05/28 06:21:00;;;;;;;7.57;1.73;;;;;;;;;;5007408;28;20043;-86
2022/05/28 06:23:27;;;;;;;8.57;1.70;;;;;;;;;;4974675;28;20043;-83
2022/05/28 06:25:54;;;;;;;7.38;1.70;;;;;;;;;;5006936;28;20046;-82
2022/05/28 06:28:20;;;;;;;11.45;1.85;;;;;;;;;;4974381;28;20049;-86
2022/05/28 06:30:49;;;;;;;14.02;1.95;;;;;;;;;;4973716;28;20517;-80
2022/05/28 06:33:16;;;;;;;15.18;2.22;;;;;;;;;;4973331;28;20094;-80
2022/05/28 06:35:42;;;;;;;9.57;1.80;;;;;;;;;;4974869;28;20049;-82
2022/05/28 06:38:09;;;;;;;12.18;1.77;;;;;;;;;;5018192;28;20042;-84
2022/05/28 06:40:35;;;;;;;8.07;2.10;;;;;;;;;;4989415;28;20042;-82
2022/05/28 06:43:02;;;;;;;11.52;2.08;;;;;;;;;;4974724;28;20443;-84
2022/05/28 06:45:28;;;;;;;12.07;2.05;;;;;;;;;;4974571;28;20542;-83
2022/05/28 06:47:54;;;;;;;9.50;1.73;;;;;;;;;;4990466;28;20078;-81
2022/05/28 06:53:09;;;;;;;9.18;1.55;;;;;;;;;;4982033;28;20074;-85
2022/05/28 06:55:36;;;;;;;8.32;1.60;;;;;;;;;;4974549;28;20521;-81
2022/05/28 06:58:03;;;;;;;11.38;1.85;;;;;;;;;;4986907;28;20075;-85
2022/05/28 07:00:29;;;;;;;8.75;2.00;;;;;;;;;;4986835;28;20039;-87
2022/05/28 07:02:56;;;;;;;9.68;1.80;;;;;;;;;;4962192;28;20051;-81
2022/05/28 07:05:22;;;;;;;8.60;1.70;;;;;;;;;;4974162;28;20050;-84
2022/05/28 07:07:48;;;;;;;9.38;2.58;;;;;;;;;;5005013;28;20049;-84
2022/05/28 07:10:14;;;;;;;12.88;1.98;;;;;;;;;;4989484;28;20056;-83
2022/05/28 07:12:40;;;;;;;12.25;2.15;;;;;;;;;;4993638;28;20074;-84
2022/05/28 07:15:07;;;;;;;10.93;1.75;;;;;;;;;;4983097;28;20102;-82
2022/05/28 07:17:33;;;;;;;9.32;1.98;;;;;;;;;;4990371;28;20062;-83
2022/05/28 07:19:59;;;;;;;9.18;2.28;;;;;;;;;;4989314;28;20054;-82
2022/05/28 07:22:25;;;;;;;9.15;1.60;;;;;;;;;;4974927;28;20487;-84
2022/05/28 07:24:51;;;;;;;9.02;1.75;;;;;;;;;;4986154;28;20039;-85
2022/05/28 07:27:18;;;;;;;9.93;1.90;;;;;;;;;;4985251;28;20046;-82
2022/05/28 07:29:45;;;;;;;9.02;1.90;;;;;;;;;;4990387;28;20043;-81
2022/05/28 07:32:11;;;;;;;11.27;1.70;;;;;;;;;;4979302;28;20411;-85
2022/05/28 07:34:37;;;;;;;11.68;1.80;;;;;;;;;;5002451;28;20045;-81
2022/05/28 07:37:03;;;;;;;11.48;1.80;;;;;;;;;;4989061;28;20046;-86
2022/05/28 07:39:30;;;;;;;11.93;2.00;;;;;;;;;;4973518;28;20394;-80
2022/05/28 07:41:56;;;;;;;9.77;1.90;;;;;;;;;;4989322;28;20049;-85
2022/05/28 07:44:22;;;;;;;10.70;1.70;;;;;;;;;;4973115;28;20074;-81
2022/05/28 07:46:49;;;;;;;14.27;2.05;;;;;;;;;;4973354;28;20691;-80
2022/05/28 07:49:15;;;;;;;9.82;2.08;;;;;;;;;;4989227;28;20458;-78
2022/05/28 07:51:41;;;;;;;9.82;1.80;;;;;;;;;;4988219;28;20039;-81
2022/05/28 07:54:07;;;;;;;8.57;1.65;;;;;;;;;;4977162;28;20046;-84
2022/05/28 07:56:33;;;;;;;10.65;1.65;;;;;;;;;;4987447;28;20252;-83
2022/05/28 07:59:00;;;;;;;8.18;1.65;;;;;;;;;;5015556;28;20041;-86
2022/05/28 08:01:26;;;;;;;9.65;1.80;;;;;;;;;;4988683;28;20058;-86
2022/05/28 08:03:52;;;;;;;8.98;1.80;;;;;;;;;;4988801;28;20058;-81
2022/05/28 08:06:18;;;;;;;7.45;1.95;;;;;;;;;;4984352;28;20525;-83
2022/05/28 08:08:45;;;;;;;9.13;1.73;;;;;;;;;;4974544;28;20058;-85
2022/05/28 08:11:11;;;;;;;8.48;1.70;;;;;;;;;;4987414;28;20494;-83
2022/05/28 08:13:37;;;;;;;8.10;1.80;;;;;;;;;;4987782;28;20499;-87
2022/05/28 08:16:04;;;;;;;10.07;1.73;;;;;;;;;;4992502;28;20125;-81
2022/05/28 08:18:30;;;;;;;9.07;1.73;;;;;;;;;;4991895;28;20406;-80
2022/05/28 08:23:43;;;;;;;8.73;1.50;;;;;;;;;;4990729;28;20054;-79
2022/05/28 08:26:10;;;;;;;11.07;1.98;;;;;;;;;;4989335;28;20043;-81
2022/05/28 08:28:37;;;;;;;10.73;2.10;;;;;;;;;;4987570;28;20082;-81
2022/05/28 08:31:04;;;;;;;11.63;2.25;;;;;;;;;;4987758;28;20042;-86
2022/05/28 08:33:30;;;;;;;7.55;1.38;;;;;;;;;;4988512;28;20125;-83
2022/05/28 08:35:56;;;;;;;9.85;1.85;;;;;;;;;;4988921;28;20174;-84
2022/05/28 08:38:23;;;;;;;9.52;1.85;;;;;;;;;;4989129;28;20061;-86
2022/05/28 08:40:51;;;;;;;9.40;1.90;;;;;;;;;;4972040;28;20074;-84
2022/05/28 08:43:19;;;;;;;7.78;1.70;;;;;;;;;;4988812;28;20117;-84
2022/05/28 08:45:46;;;;;;;8.77;1.67;;;;;;;;;;4994977;28;20149;-80
2022/05/28 08:48:15;;;;;;;9.32;1.83;;;;;;;;;;4978734;28;20047;-85
2022/05/28 08:51:01;;;;;;;8.48;1.70;;;;;;;;;;4985623;28;20073;-87
2022/05/28 08:53:30;;;;;;;8.60;1.60;;;;;;;;;;4972554;28;20078;-83
2022/05/28 08:55:58;;;;;;;9.40;2.10;;;;;;;;;;4968815;28;20436;-82
2022/05/28 08:58:26;;;;;;;12.05;1.95;;;;;;;;;;5010049;28;20050;-84
2022/05/28 09:00:57;;;;;;;8.38;1.58;;;;;;;;;;4991089;28;20042;-81
2022/05/28 09:03:26;;;;;;;9.07;1.70;;;;;;;;;;4979728;28;20050;-81
2022/05/28 09:06:01;;;;;;;8.38;1.98;;;;;;;;;;4992199;28;20050;-84
2022/05/28 09:08:27;;;;;;;;;;;;;;;;;;4980408;28;20042;-81
2022/05/28 09:10:54;;;;;;;7.43;1.35;;;;;;;;;;4991534;28;20270;-83
2022/05/28 09:13:25;;;;;;;9.43;1.83;;;;;;;;;;4982462;28;20483;-81
2022/05/28 09:15:52;;;;;;;6.90;1.50;;;;;;;;;;4988392;28;20058;-81
2022/05/28 09:18:20;;;;;;;8.63;1.67;;;;;;;;;;4972778;28;20035;-85
2022/05/28 09:20:48;;;;;;;5.18;1.50;;;;;;;;;;4988621;28;20268;-81
2022/05/28 09:23:14;;;;;;;7.65;1.45;;;;;;;;;;5005200;28;20042;-76
2022/05/28 09:25:43;;;;;;;10.48;1.50;;;;;;;;;;4984991;28;20043;-76
2022/05/28 09:28:28;;;;;;;10.27;1.65;;;;;;;;;;5001217;28;20557;-76
2022/05/28 09:30:54;;;;;;;6.07;1.70;;;;;;;;;;4984874;28;20049;-75
2022/05/28 09:33:20;;;;;;;11.95;2.08;;;;;;;;;;4985448;28;20125;-75
2022/05/28 09:36:05;;;;;;;10.57;1.90;;;;;;;;;;4968543;28;20054;-76
2022/05/28 09:38:50;;;;;;;7.07;1.70;;;;;;;;;;4972366;28;20061;-77
2022/05/28 09:41:34;;;;;;;9.52;1.92;;;;;;;;;;4970025;28;20051;-75
2022/05/28 09:44:22;;;;;;;6.75;1.92;;;;;;;;;;4984832;28;20050;-76
2022/05/28 09:46:48;;;;;;;7.32;1.65;;;;;;;;;;5000789;28;20042;-77
2022/05/28 09:49:21;;;;;;;10.23;2.13;;;;;;;;;;4985020;28;20061;-75
2022/05/28 09:51:50;;;;;;;9.52;1.67;;;;;;;;;;4984873;28;20090;-74
2022/05/28 09:54:20;;;;;;;9.40;1.83;;;;;;;;;;4984888;28;20097;-76
2022/05/28 09:56:57;;;;;;;10.73;1.60;;;;;;;;;;4990979;28;20039;-75
2022/05/28 09:59:37;;;;;;;9.93;1.70;;;;;;;;;;4972300;28;20039;-74
2022/05/28 10:02:22;;;;;;;10.82;1.90;;;;;;;;;;5001008;28;20050;-76
2022/05/28 10:04:57;;;;;;;7.70;1.40;;;;;;;;;;4984951;28;20066;-75
2022/05/28 10:07:41;;;;;;;9.93;1.70;;;;;;;;;;4968646;28;20053;-75
2022/05/28 10:10:14;;;;;;;8.30;1.83;;;;;;;;;;5001345;28;20074;-76
2022/05/28 10:12:40;;;;;;;13.88;2.05;;;;;;;;;;4984409;28;20047;-75
2022/05/28 10:15:11;;;;;;;11.00;2.20;;;;;;;;;;4984748;28;20051;-76
2022/05/28 10:17:38;;;;;;;7.53;1.80;;;;;;;;;;5001128;28;20050;-76
2022/05/28 10:20:13;;;;;;;8.52;1.60;;;;;;;;;;4989836;28;20050;-81
2022/05/28 10:22:40;;;;;;;16.15;2.72;;;;;;;;;;5004343;28;20054;-85
2022/05/28 10:25:10;;;;;;;10.82;2.28;;;;;;;;;;4974082;28;20394;-82
2022/05/28 10:27:45;;;;;;;11.35;1.90;;;;;;;;;;4988400;28;20108;-81
2022/05/28 10:30:24;;;;;;;8.73;1.63;;;;;;;;;;4990416;28;20047;-82
2022/05/28 10:32:51;;;;;;;5.22;1.40;;;;;;;;;;4987111;28;20046;-78
2022/05/28 10:35:22;;;;;;;12.32;1.90;;;;;;;;;;5008063;28;20414;-81
2022/05/28 10:37:48;;;;;;;9.23;2.00;;;;;;;;;;4992860;28;20042;-80
2022/05/28 10:40:20;;;;;;;8.23;2.20;;;;;;;;;;4976258;28;20070;-77
2022/05/28 10:42:46;;;;;;;11.50;1.98;;;;;;;;;;4988389;28;20046;-76
2022/05/28 10:45:15;;;;;;;10.13;1.63;;;;;;;;;;4989234;28;20057;-76
2022/05/28 10:48:00;;;;;;;7.63;1.85;;;;;;;;;;4989060;28;20049;-76
2022/05/28 10:50:31;;;;;;;9.95;1.85;;;;;;;;;;4989369;28;20041;-76
2022/05/28 10:53:00;;;;;;;8.50;1.52;;;;;;;;;;4988930;28;20400;-78
2022/05/28 10:55:45;;;;;;;7.88;2.00;;;;;;;;;;4989913;28;20104;-77
2022/05/28 10:58:36;;;;;;;8.07;1.75;;;;;;;;;;4980002;28;20043;-76
2022/05/28 11:01:04;;;;;;;7.32;1.90;;;;;;;;;;4988448;28;20047;-76
2022/05/28 11:03:42;;;;;;;6.20;1.48;;;;;;;;;;4988846;28;20073;-76
2022/05/28 11:06:25;;;;;;;10.52;1.73;;;;;;;;;;4975878;28;20119;-75
2022/05/28 11:09:01;;;;;;;10.15;1.90;;;;;;;;;;4988195;28;20046;-76
2022/05/28 11:11:40;;;;;;;8.80;1.85;;;;;;;;;;4974779;28;20047;-77
2022/05/28 11:14:25;;;;;;;9.95;1.85;;;;;;;;;;4987928;28;20117;-76
2022/05/28 11:16:54;;;;;;;10.10;1.90;;;;;;;;;;4971372;28;20038;-76
2022/05/28 11:19:23;;;;;;;6.72;1.40;;;;;;;;;;4987637;28;20045;-78
2022/05/28 11:22:02;;;;;;;9.52;1.60;;;;;;;;;;4972727;28;20038;-77
2022/05/28 11:24:47;;;;;;;9.55;1.80;;;;;;;;;;4987829;28;20100;-76
2022/05/28 11:27:28;;;;;;;8.90;1.50;;;;;;;;;;4987583;28;20050;-75
2022/05/28 11:30:03;;;;;;;7.82;1.55;;;;;;;;;;4987429;28;20050;-74
2022/05/28 11:33:08;;;;;;;13.90;2.20;;;;;;;;;;4987643;28;20050;-76
2022/05/28 11:35:38;;;;;;;7.75;1.77;;;;;;;;;;4936634;29;20535;-73
2022/05/28 11:38:10;;;;;;;9.25;1.52;;;;;;;;;;4939781;29;20036;-76
2022/05/28 11:40:55;;;;;;;9.27;1.50;;;;;;;;;;4936923;28;20546;-75
2022/05/28 11:43:32;;;;;;;7.20;1.45;;;;;;;;;;4986839;28;20125;-75
2022/05/28 11:46:05;;;;;;;7.05;1.70;;;;;;;;;;4986651;28;20392;-74
2022/05/28 11:51:37;;;;;;;9.75;2.05;;;;;;;;;;4986915;28;20050;-76
2022/05/28 11:54:22;;;;;;;5.93;1.50;;;;;;;;;;5003206;28;20042;-76
2022/05/28 11:56:49;;;;;;;8.13;1.42;;;;;;;;;;4976511;28;20039;-76
2022/05/28 11:59:22;;;;;;;8.27;1.60;;;;;;;;;;5016816;28;20045;-76
2022/05/28 12:01:51;;;;;;;6.40;1.65;;;;;;;;;;4969915;28;20105;-75
2022/05/28 12:04:17;;;;;;;7.28;1.60;;;;;;;;;;5003347;28;20050;-76
2022/05/28 12:07:13;;;;;;;9.95;1.80;;;;;;;;;;4986067;28;20050;-76
2022/05/28 12:09:45;;;;;;;7.70;1.98;;;;;;;;;;4961952;28;20498;-76
2022/05/28 12:12:17;;;;;;;7.45;1.48;;;;;;;;;;4986670;28;20491;-78
2022/05/28 12:14:47;;;;;;;8.63;1.50;;;;;;;;;;4986113;28;20289;-78
2022/05/28 12:17:19;;;;;;;8.63;1.35;;;;;;;;;;5002983;28;20430;-76
2022/05/28 12:19:46;;;;;;;8.55;1.55;;;;;;;;;;4957062;28;20121;-77
2022/05/28 12:22:30;;;;;;;13.50;1.67;;;;;;;;;;4986627;28;20058;-80
2022/05/28 12:25:03;;;;;;;11.50;1.88;;;;;;;;;;4973972;28;20626;-77
2022/05/28 12:27:36;;;;;;;8.32;1.83;;;;;;;;;;4970646;28;20050;-75
2022/05/28 12:30:02;;;;;;;8.93;1.70;;;;;;;;;;4969837;28;20042;-76
2022/05/28 12:32:58;;;;;;;9.07;2.00;;;;;;;;;;4969989;28;20046;-76
2022/05/28 12:35:30;;;;;;;8.90;1.88;;;;;;;;;;4946122;28;20275;-78
2022/05/28 12:37:59;;;;;;;9.95;1.70;;;;;;;;;;4969509;28;20049;-77
2022/05/28 12:40:38;;;;;;;11.20;1.80;;;;;;;;;;4986254;28;20043;-79
2022/05/28 12:43:15;;;;;;;10.77;1.60;;;;;;;;;;4986280;28;20042;-77
2022/05/28 12:45:43;;;;;;;11.88;2.03;;;;;;;;;;4972090;28;20060;-77
2022/05/28 12:48:24;;;;;;;7.60;1.75;;;;;;;;;;4986087;28;20379;-82
2022/05/28 12:51:20;;;;;;;9.52;1.70;;;;;;;;;;4972600;28;20399;-77
2022/05/28 12:53:54;;;;;;;7.57;1.50;;;;;;;;;;4932239;28;20060;-80
2022/05/28 12:56:28;;;;;;;8.68;1.40;;;;;;;;;;4973792;28;20469;-78
2022/05/28 12:58:54;;;;;;;10.95;1.70;;;;;;;;;;4969036;28;20050;-77
2022/05/28 13:01:28;;;;;;;11.32;1.85;;;;;;;;;;4969710;28;20045;-77
2022/05/28 13:03:54;;;;;;;8.45;1.50;;;;;;;;;;4969464;28;20057;-76
2022/05/28 13:06:27;;;;;;;9.70;1.88;;;;;;;;;;5001838;28;20078;-77
2022/05/28 13:09:03;;;;;;;9.68;2.22;;;;;;;;;;5001628;28;20406;-78
2022/05/28 13:11:36;;;;;;;7.05;1.63;;;;;;;;;;4969670;28;20553;-77
2022/05/28 13:14:18;;;;;;;10.18;2.67;;;;;;;;;;5001839;28;20507;-75
2022/05/28 13:16:56;;;;;;;10.45;1.90;;;;;;;;;;4969088;28;20038;-77
2022/05/28 13:19:35;;;;;;;7.60;1.50;;;;;;;;;;5001906;28;20122;-77
2022/05/28 13:22:01;;;;;;;9.48;1.60;;;;;;;;;;5001731;28;20133;-76
2022/05/28 13:24:47;;;;;;;7.85;1.30;;;;;;;;;;5002335;28;20051;-79
2022/05/28 13:27:29;;;;;;;7.35;1.40;;;;;;;;;;4959392;28;20118;-78
2022/05/28 13:29:55;;;;;;;6.25;1.20;;;;;;;;;;5001245;28;20043;-79
2022/05/28 13:32:25;;;;;;;6.13;1.13;;;;;;;;;;5001790;28;20039;-76
2022/05/28 13:35:01;;;;;;;5.57;1.20;;;;;;;;;;4968776;28;20126;-79
2022/05/28 13:37:28;;;;;;;4.05;1.20;;;;;;;;;;5001831;28;20045;-77
2022/05/28 13:39:56;;;;;;;6.40;1.20;;;;;;;;;;4984616;28;20175;-80
2022/05/28 13:42:22;;;;;;;7.93;1.60;;;;;;;;;;4985319;28;20046;-75
2022/05/28 13:44:49;;;;;;;7.63;1.20;;;;;;;;;;4968887;28;20078;-77
2022/05/28 13:47:16;;;;;;;7.03;1.40;;;;;;;;;;5001602;28;20407;-78
2022/05/28 13:49:47;;;;;;;6.60;1.20;;;;;;;;;;4969931;28;20054;-78
2022/05/28 13:52:16;;;;;;;4.80;1.05;;;;;;;;;;4968965;28;20502;-76
2022/05/28 13:54:52;;;;;;;5.68;1.40;;;;;;;;;;5001142;28;20051;-77
2022/05/28 13:57:18;;;;;;;7.18;1.05;;;;;;;;;;4959612;28;20039;-76
2022/05/28 13:59:49;;;;;;;12.13;1.40;;;;;;;;;;4984930;28;20402;-76
2022/05/28 14:02:25;;;;;;;7.53;1.30;;;;;;;;;;5003722;28;20050;-75
2022/05/28 14:04:51;;;;;;;10.25;1.70;;;;;;;;;;4978434;28;20053;-76
2022/05/28 14:07:24;;;;;;;10.95;1.42;;;;;;;;;;4969984;28;20125;-77
2022/05/28 14:09:50;;;;;;;6.18;1.90;;;;;;;;;;4985450;28;20113;-76
2022/05/28 14:12:19;;;;;;;5.85;1.50;;;;;;;;;;5005661;28;20477;-77
2022/05/28 14:14:46;;;;;;;5.80;1.40;;;;;;;;;;4972310;28;20051;-77
2022/05/28 14:17:25;;;;;;;9.15;1.73;;;;;;;;;;4989366;28;20039;-76
2022/05/28 14:19:53;;;;;;;6.18;1.38;;;;;;;;;;4975715;28;20051;-77
2022/05/28 14:22:21;;;;;;;8.00;1.20;;;;;;;;;;5005847;28;20039;-77
2022/05/28 14:24:47;;;;;;;8.07;1.30;;;;;;;;;;4972514;28;20050;-77
2022/05/28 14:27:18;;;;;;;10.50;1.25;;;;;;;;;;4989205;28;20082;-76
2022/05/28 14:29:45;;;;;;;5.97;1.10;;;;;;;;;;4988049;28;20034;-76
2022/05/28 14:32:13;;;;;;;9.25;1.27;;;;;;;;;;4972306;28;20038;-76
2022/05/28 14:34:41;;;;;;;5.68;1.10;;;;;;;;;;4988847;28;20030;-83
2022/05/28 14:37:08;;;;;;;6.38;1.08;;;;;;;;;;4991317;28;20046;-81
2022/05/28 14:39:44;;;;;;;6.25;1.30;;;;;;;;;;5007331;28;20042;-81
2022/05/28 14:42:12;;;;;;;5.93;1.55;;;;;;;;;;4999696;28;20104;-86
2022/05/28 14:44:39;;;;;;;3.97;0.93;;;;;;;;;;4978424;28;20046;-80
2022/05/28 14:47:14;;;;;;;4.38;1.00;;;;;;;;;;4994359;28;20034;-82
2022/05/28 14:49:49;;;;;;;5.82;1.38;;;;;;;;;;4983189;28;20043;-80
2022/05/28 14:52:17;;;;;;;6.70;1.23;;;;;;;;;;5006685;28;20043;-82
2022/05/28 14:54:52;;;;;;;7.18;1.27;;;;;;;;;;4990905;28;20503;-91
2022/05/28 14:57:25;;;;;;;7.97;1.30;;;;;;;;;;4989859;28;20486;-84
2022/05/28 14:59:51;;;;;;;7.75;1.23;;;;;;;;;;4999957;28;20545;-86
2022/05/28 15:02:24;;;;;;;5.85;1.20;;;;;;;;;;4990928;28;20087;-83
2022/05/28 15:04:51;;;;;;;10.13;1.38;;;;;;;;;;5006367;28;20045;-81
2022/05/28 15:07:28;;;;;;;10.23;1.42;;;;;;;;;;4989049;28;20171;-84